sensor_id;sensor_type;location;lat;lon;timestamp;P1;durP1;ratioP1;P2;durP2;ratioP2
32297;SDS011;18782;48.984;8.548;2023-02-15T00:01:39;40.47;;;20.02;;
32297;SDS011;18782;48.984;8.548;2023-02-15T00:04:08;42.88;;;20.08;;
32297;SDS011;18782;48.984;8.548;2023-02-15T00:23:06;39.40;;;18.42;;
32297;SDS011;18782;48.984;8.548;2023-02-15T00:25:33;34.90;;;16.90;;
32297;SDS011;18782;48.984;8.548;2023-02-15T00:28:01;39.45;;;19.63;;
32297;SDS011;18782;48.984;8.548;2023-02-15T00:30:28;38.92;;;17.48;;
32297;SDS011;18782;48.984;8.548;2023-02-15T00:32:56;35.90;;;19.10;;
32297;SDS011;18782;48.984;8.548;2023-02-15T00:35:23;33.17;;;17.20;;
32297;SDS011;18782;48.984;8.548;2023-02-15T00:37:51;33.83;;;17.70;;
32297;SDS011;18782;48.984;8.548;2023-02-15T00:40:20;34.58;;;17.80;;
32297;SDS011;18782;48.984;8.548;2023-02-15T00:42:48;34.00;;;17.27;;
32297;SDS011;18782;48.984;8.548;2023-02-15T00:45:16;33.55;;;17.77;;
32297;SDS011;18782;48.984;8.548;2023-02-15T00:47:44;33.45;;;17.45;;
32297;SDS011;18782;48.984;8.548;2023-02-15T00:50:11;34.92;;;17.50;;
32297;SDS011;18782;48.984;8.548;2023-02-15T00:52:39;35.30;;;18.17;;
32297;SDS011;18782;48.984;8.548;2023-02-15T00:55:06;37.00;;;19.17;;
32297;SDS011;18782;48.984;8.548;2023-02-15T00:57:35;40.67;;;19.65;;
32297;SDS011;18782;48.984;8.548;2023-02-15T01:00:03;36.70;;;18.48;;
32297;SDS011;18782;48.984;8.548;2023-02-15T01:02:32;36.13;;;18.45;;
32297;SDS011;18782;48.984;8.548;2023-02-15T01:05:01;44.08;;;19.30;;
32297;SDS011;18782;48.984;8.548;2023-02-15T01:07:28;36.95;;;18.52;;
32297;SDS011;18782;48.984;8.548;2023-02-15T01:09:58;40.50;;;18.80;;
32297;SDS011;18782;48.984;8.548;2023-02-15T01:12:25;40.45;;;19.67;;
32297;SDS011;18782;48.984;8.548;2023-02-15T01:14:55;38.92;;;18.77;;
32297;SDS011;18782;48.984;8.548;2023-02-15T01:25:05;25.00;;;13.20;;
32297;SDS011;18782;48.984;8.548;2023-02-15T01:27:33;23.98;;;13.65;;
32297;SDS011;18782;48.984;8.548;2023-02-15T01:30:03;23.27;;;12.98;;
32297;SDS011;18782;48.984;8.548;2023-02-15T01:32:35;28.75;;;15.02;;
32297;SDS011;18782;48.984;8.548;2023-02-15T01:35:03;30.25;;;15.35;;
32297;SDS011;18782;48.984;8.548;2023-02-15T01:37:31;26.10;;;13.18;;
32297;SDS011;18782;48.984;8.548;2023-02-15T01:39:59;26.05;;;14.02;;
32297;SDS011;18782;48.984;8.548;2023-02-15T01:42:27;25.55;;;14.10;;
32297;SDS011;18782;48.984;8.548;2023-02-15T01:44:56;30.08;;;15.60;;
32297;SDS011;18782;48.984;8.548;2023-02-15T01:47:28;30.42;;;15.77;;
32297;SDS011;18782;48.984;8.548;2023-02-15T01:50:03;31.15;;;15.40;;
32297;SDS011;18782;48.984;8.548;2023-02-15T01:52:37;25.25;;;13.65;;
32297;SDS011;18782;48.984;8.548;2023-02-15T01:55:10;23.13;;;12.55;;
32297;SDS011;18782;48.984;8.548;2023-02-15T01:57:39;26.45;;;14.27;;
32297;SDS011;18782;48.984;8.548;2023-02-15T02:00:08;34.20;;;15.60;;
32297;SDS011;18782;48.984;8.548;2023-02-15T02:02:40;32.42;;;14.80;;
32297;SDS011;18782;48.984;8.548;2023-02-15T02:05:10;28.58;;;13.80;;
32297;SDS011;18782;48.984;8.548;2023-02-15T02:07:39;25.38;;;13.38;;
32297;SDS011;18782;48.984;8.548;2023-02-15T02:10:10;22.90;;;13.82;;
32297;SDS011;18782;48.984;8.548;2023-02-15T02:12:39;25.67;;;13.73;;
32297;SDS011;18782;48.984;8.548;2023-02-15T02:15:09;22.25;;;12.80;;
32297;SDS011;18782;48.984;8.548;2023-02-15T02:17:39;24.60;;;12.05;;
32297;SDS011;18782;48.984;8.548;2023-02-15T02:20:20;25.60;;;14.07;;
32297;SDS011;18782;48.984;8.548;2023-02-15T02:23:00;25.08;;;12.45;;
32297;SDS011;18782;48.984;8.548;2023-02-15T02:25:45;22.17;;;12.65;;
32297;SDS011;18782;48.984;8.548;2023-02-15T02:28:45;24.52;;;13.60;;
32297;SDS011;18782;48.984;8.548;2023-02-15T02:34:42;23.00;;;12.40;;
32297;SDS011;18782;48.984;8.548;2023-02-15T02:37:19;18.52;;;10.85;;
32297;SDS011;18782;48.984;8.548;2023-02-15T02:39:55;23.10;;;12.55;;
32297;SDS011;18782;48.984;8.548;2023-02-15T02:42:32;21.42;;;12.80;;
32297;SDS011;18782;48.984;8.548;2023-02-15T02:45:06;23.13;;;13.38;;
32297;SDS011;18782;48.984;8.548;2023-02-15T02:47:36;26.77;;;13.77;;
32297;SDS011;18782;48.984;8.548;2023-02-15T02:50:12;22.33;;;13.10;;
32297;SDS011;18782;48.984;8.548;2023-02-15T02:52:42;24.77;;;12.73;;
32297;SDS011;18782;48.984;8.548;2023-02-15T02:55:13;25.52;;;13.43;;
32297;SDS011;18782;48.984;8.548;2023-02-15T02:57:46;25.53;;;13.77;;
32297;SDS011;18782;48.984;8.548;2023-02-15T03:00:21;22.02;;;12.63;;
32297;SDS011;18782;48.984;8.548;2023-02-15T03:02:51;21.80;;;12.40;;
32297;SDS011;18782;48.984;8.548;2023-02-15T03:05:26;24.42;;;13.32;;
32297;SDS011;18782;48.984;8.548;2023-02-15T03:07:57;21.70;;;12.40;;
32297;SDS011;18782;48.984;8.548;2023-02-15T03:10:27;23.73;;;12.25;;
32297;SDS011;18782;48.984;8.548;2023-02-15T03:12:56;21.50;;;12.60;;
32297;SDS011;18782;48.984;8.548;2023-02-15T03:15:26;27.55;;;12.63;;
32297;SDS011;18782;48.984;8.548;2023-02-15T03:18:20;29.37;;;12.90;;
32297;SDS011;18782;48.984;8.548;2023-02-15T03:20:54;22.88;;;12.23;;
32297;SDS011;18782;48.984;8.548;2023-02-15T03:23:23;23.10;;;11.95;;
32297;SDS011;18782;48.984;8.548;2023-02-15T03:25:55;22.15;;;12.35;;
32297;SDS011;18782;48.984;8.548;2023-02-15T03:28:29;27.88;;;12.73;;
32297;SDS011;18782;48.984;8.548;2023-02-15T03:31:02;25.98;;;11.07;;
32297;SDS011;18782;48.984;8.548;2023-02-15T03:33:33;23.00;;;12.45;;
32297;SDS011;18782;48.984;8.548;2023-02-15T03:36:08;20.92;;;10.95;;
32297;SDS011;18782;48.984;8.548;2023-02-15T03:38:47;17.35;;;9.80;;
32297;SDS011;18782;48.984;8.548;2023-02-15T03:41:19;18.70;;;11.32;;
32297;SDS011;18782;48.984;8.548;2023-02-15T03:43:51;18.95;;;11.18;;
32297;SDS011;18782;48.984;8.548;2023-02-15T03:46:23;18.13;;;11.30;;
32297;SDS011;18782;48.984;8.548;2023-02-15T03:48:55;21.80;;;12.07;;
32297;SDS011;18782;48.984;8.548;2023-02-15T03:51:29;15.37;;;8.47;;
32297;SDS011;18782;48.984;8.548;2023-02-15T03:54:05;16.65;;;10.93;;
32297;SDS011;18782;48.984;8.548;2023-02-15T03:56:36;20.70;;;12.25;;
32297;SDS011;18782;48.984;8.548;2023-02-15T03:59:06;20.73;;;11.85;;
32297;SDS011;18782;48.984;8.548;2023-02-15T04:01:54;22.20;;;11.90;;
32297;SDS011;18782;48.984;8.548;2023-02-15T04:04:32;19.85;;;11.35;;
32297;SDS011;18782;48.984;8.548;2023-02-15T04:07:04;19.30;;;10.98;;
32297;SDS011;18782;48.984;8.548;2023-02-15T04:09:33;18.90;;;10.10;;
32297;SDS011;18782;48.984;8.548;2023-02-15T04:12:18;19.83;;;11.00;;
32297;SDS011;18782;48.984;8.548;2023-02-15T04:14:46;18.90;;;10.95;;
32297;SDS011;18782;48.984;8.548;2023-02-15T04:17:31;17.45;;;10.38;;
32297;SDS011;18782;48.984;8.548;2023-02-15T04:19:59;22.10;;;11.60;;
32297;SDS011;18782;48.984;8.548;2023-02-15T04:22:46;18.20;;;10.60;;
32297;SDS011;18782;48.984;8.548;2023-02-15T04:25:31;18.88;;;10.82;;
32297;SDS011;18782;48.984;8.548;2023-02-15T04:27:59;21.27;;;12.27;;
32297;SDS011;18782;48.984;8.548;2023-02-15T04:30:26;21.63;;;12.43;;
32297;SDS011;18782;48.984;8.548;2023-02-15T04:32:54;19.05;;;10.68;;
32297;SDS011;18782;48.984;8.548;2023-02-15T04:35:23;20.35;;;11.07;;
32297;SDS011;18782;48.984;8.548;2023-02-15T04:37:53;16.98;;;10.00;;
32297;SDS011;18782;48.984;8.548;2023-02-15T04:40:22;25.50;;;10.82;;
32297;SDS011;18782;48.984;8.548;2023-02-15T04:42:49;17.75;;;10.27;;
32297;SDS011;18782;48.984;8.548;2023-02-15T04:45:17;18.15;;;10.88;;
32297;SDS011;18782;48.984;8.548;2023-02-15T04:47:44;28.90;;;12.30;;
32297;SDS011;18782;48.984;8.548;2023-02-15T04:50:12;19.88;;;10.05;;
32297;SDS011;18782;48.984;8.548;2023-02-15T04:52:40;19.23;;;11.30;;
32297;SDS011;18782;48.984;8.548;2023-02-15T04:55:09;18.50;;;10.43;;
32297;SDS011;18782;48.984;8.548;2023-02-15T04:57:36;19.00;;;10.73;;
32297;SDS011;18782;48.984;8.548;2023-02-15T05:00:04;15.30;;;9.07;;
32297;SDS011;18782;48.984;8.548;2023-02-15T05:02:34;23.13;;;11.43;;
32297;SDS011;18782;48.984;8.548;2023-02-15T05:05:02;21.30;;;11.52;;
32297;SDS011;18782;48.984;8.548;2023-02-15T05:07:29;18.13;;;10.07;;
32297;SDS011;18782;48.984;8.548;2023-02-15T05:09:57;21.02;;;11.23;;
32297;SDS011;18782;48.984;8.548;2023-02-15T05:12:26;19.88;;;11.10;;
32297;SDS011;18782;48.984;8.548;2023-02-15T05:14:53;22.95;;;12.05;;
32297;SDS011;18782;48.984;8.548;2023-02-15T05:17:21;22.35;;;12.73;;
32297;SDS011;18782;48.984;8.548;2023-02-15T05:19:49;18.70;;;10.85;;
32297;SDS011;18782;48.984;8.548;2023-02-15T05:22:16;19.23;;;11.52;;
32297;SDS011;18782;48.984;8.548;2023-02-15T05:24:44;19.20;;;10.63;;
32297;SDS011;18782;48.984;8.548;2023-02-15T05:27:30;25.17;;;11.30;;
32297;SDS011;18782;48.984;8.548;2023-02-15T05:30:15;17.88;;;10.18;;
32297;SDS011;18782;48.984;8.548;2023-02-15T05:32:43;25.83;;;10.95;;
32297;SDS011;18782;48.984;8.548;2023-02-15T05:35:11;17.63;;;10.23;;
32297;SDS011;18782;48.984;8.548;2023-02-15T05:37:41;18.33;;;10.20;;
32297;SDS011;18782;48.984;8.548;2023-02-15T05:40:09;18.40;;;10.02;;
32297;SDS011;18782;48.984;8.548;2023-02-15T05:42:38;20.83;;;11.45;;
32297;SDS011;18782;48.984;8.548;2023-02-15T05:45:06;19.40;;;11.25;;
32297;SDS011;18782;48.984;8.548;2023-02-15T05:47:34;21.20;;;12.30;;
32297;SDS011;18782;48.984;8.548;2023-02-15T05:50:02;18.83;;;11.48;;
32297;SDS011;18782;48.984;8.548;2023-02-15T05:52:29;24.80;;;12.50;;
32297;SDS011;18782;48.984;8.548;2023-02-15T05:54:57;18.25;;;10.55;;
32297;SDS011;18782;48.984;8.548;2023-02-15T05:57:26;19.90;;;9.88;;
32297;SDS011;18782;48.984;8.548;2023-02-15T05:59:55;16.75;;;10.02;;
32297;SDS011;18782;48.984;8.548;2023-02-15T06:06:35;17.55;;;9.77;;
32297;SDS011;18782;48.984;8.548;2023-02-15T06:09:03;15.52;;;9.07;;
32297;SDS011;18782;48.984;8.548;2023-02-15T06:11:31;20.38;;;10.77;;
32297;SDS011;18782;48.984;8.548;2023-02-15T06:13:58;15.15;;;8.52;;
32297;SDS011;18782;48.984;8.548;2023-02-15T06:16:27;17.70;;;9.82;;
32297;SDS011;18782;48.984;8.548;2023-02-15T06:18:55;16.02;;;9.45;;
32297;SDS011;18782;48.984;8.548;2023-02-15T06:21:22;17.23;;;9.65;;
32297;SDS011;18782;48.984;8.548;2023-02-15T06:23:50;16.13;;;9.45;;
32297;SDS011;18782;48.984;8.548;2023-02-15T06:26:17;16.98;;;8.82;;
32297;SDS011;18782;48.984;8.548;2023-02-15T06:28:45;15.25;;;9.27;;
32297;SDS011;18782;48.984;8.548;2023-02-15T06:31:12;15.90;;;9.18;;
32297;SDS011;18782;48.984;8.548;2023-02-15T06:33:41;16.30;;;9.23;;
32297;SDS011;18782;48.984;8.548;2023-02-15T06:36:09;17.02;;;9.65;;
32297;SDS011;18782;48.984;8.548;2023-02-15T06:38:37;14.73;;;8.68;;
32297;SDS011;18782;48.984;8.548;2023-02-15T06:41:04;13.07;;;8.65;;
32297;SDS011;18782;48.984;8.548;2023-02-15T06:43:32;14.57;;;8.88;;
32297;SDS011;18782;48.984;8.548;2023-02-15T06:46:00;15.45;;;8.88;;
32297;SDS011;18782;48.984;8.548;2023-02-15T06:48:28;13.75;;;8.30;;
32297;SDS011;18782;48.984;8.548;2023-02-15T06:50:57;14.23;;;8.65;;
32297;SDS011;18782;48.984;8.548;2023-02-15T06:53:25;17.02;;;9.40;;
32297;SDS011;18782;48.984;8.548;2023-02-15T06:55:52;21.27;;;11.48;;
32297;SDS011;18782;48.984;8.548;2023-02-15T06:58:20;14.10;;;8.60;;
32297;SDS011;18782;48.984;8.548;2023-02-15T07:00:47;13.88;;;8.20;;
32297;SDS011;18782;48.984;8.548;2023-02-15T07:03:15;12.00;;;7.70;;
32297;SDS011;18782;48.984;8.548;2023-02-15T07:05:43;14.80;;;7.97;;
32297;SDS011;18782;48.984;8.548;2023-02-15T07:08:12;12.73;;;7.43;;
32297;SDS011;18782;48.984;8.548;2023-02-15T07:10:43;13.65;;;8.32;;
32297;SDS011;18782;48.984;8.548;2023-02-15T07:13:11;15.43;;;8.98;;
32297;SDS011;18782;48.984;8.548;2023-02-15T07:15:37;13.40;;;7.88;;
32297;SDS011;18782;48.984;8.548;2023-02-15T07:18:05;13.32;;;7.72;;
32297;SDS011;18782;48.984;8.548;2023-02-15T07:20:32;13.55;;;8.13;;
32297;SDS011;18782;48.984;8.548;2023-02-15T07:23:03;15.07;;;8.75;;
32297;SDS011;18782;48.984;8.548;2023-02-15T07:25:32;15.65;;;8.95;;
32297;SDS011;18782;48.984;8.548;2023-02-15T07:28:01;13.95;;;7.75;;
32297;SDS011;18782;48.984;8.548;2023-02-15T07:30:30;14.68;;;8.15;;
32297;SDS011;18782;48.984;8.548;2023-02-15T07:32:58;12.55;;;8.02;;
32297;SDS011;18782;48.984;8.548;2023-02-15T07:35:47;16.20;;;8.77;;
32297;SDS011;18782;48.984;8.548;2023-02-15T07:38:14;12.85;;;7.72;;
32297;SDS011;18782;48.984;8.548;2023-02-15T07:40:44;14.30;;;8.90;;
32297;SDS011;18782;48.984;8.548;2023-02-15T07:43:12;13.95;;;8.52;;
32297;SDS011;18782;48.984;8.548;2023-02-15T07:45:40;12.90;;;8.00;;
32297;SDS011;18782;48.984;8.548;2023-02-15T07:48:08;14.60;;;8.77;;
32297;SDS011;18782;48.984;8.548;2023-02-15T07:50:36;14.15;;;8.35;;
32297;SDS011;18782;48.984;8.548;2023-02-15T07:53:03;14.23;;;8.23;;
32297;SDS011;18782;48.984;8.548;2023-02-15T07:55:31;13.48;;;8.13;;
32297;SDS011;18782;48.984;8.548;2023-02-15T07:58:00;17.40;;;10.40;;
32297;SDS011;18782;48.984;8.548;2023-02-15T08:00:28;19.40;;;11.00;;
32297;SDS011;18782;48.984;8.548;2023-02-15T08:02:57;14.88;;;9.65;;
32297;SDS011;18782;48.984;8.548;2023-02-15T08:05:43;13.73;;;8.85;;
32297;SDS011;18782;48.984;8.548;2023-02-15T08:08:12;12.85;;;8.07;;
32297;SDS011;18782;48.984;8.548;2023-02-15T08:10:59;13.48;;;7.63;;
32297;SDS011;18782;48.984;8.548;2023-02-15T08:13:47;12.70;;;7.75;;
32297;SDS011;18782;48.984;8.548;2023-02-15T08:16:22;13.75;;;7.93;;
32297;SDS011;18782;48.984;8.548;2023-02-15T08:18:57;14.65;;;8.40;;
32297;SDS011;18782;48.984;8.548;2023-02-15T08:21:26;13.57;;;8.05;;
32297;SDS011;18782;48.984;8.548;2023-02-15T08:23:55;12.18;;;7.97;;
32297;SDS011;18782;48.984;8.548;2023-02-15T08:26:25;14.48;;;8.52;;
32297;SDS011;18782;48.984;8.548;2023-02-15T08:28:56;13.70;;;8.48;;
32297;SDS011;18782;48.984;8.548;2023-02-15T08:31:24;14.90;;;8.48;;
32297;SDS011;18782;48.984;8.548;2023-02-15T08:33:53;16.20;;;8.75;;
32297;SDS011;18782;48.984;8.548;2023-02-15T08:36:22;12.52;;;7.60;;
32297;SDS011;18782;48.984;8.548;2023-02-15T08:38:50;12.70;;;8.32;;
32297;SDS011;18782;48.984;8.548;2023-02-15T08:41:18;12.63;;;8.15;;
32297;SDS011;18782;48.984;8.548;2023-02-15T08:43:48;11.63;;;6.90;;
32297;SDS011;18782;48.984;8.548;2023-02-15T08:46:19;13.32;;;7.88;;
32297;SDS011;18782;48.984;8.548;2023-02-15T08:48:48;11.23;;;7.38;;
32297;SDS011;18782;48.984;8.548;2023-02-15T08:51:19;12.35;;;7.72;;
32297;SDS011;18782;48.984;8.548;2023-02-15T08:53:48;14.25;;;7.90;;
32297;SDS011;18782;48.984;8.548;2023-02-15T08:56:18;12.73;;;7.72;;
32297;SDS011;18782;48.984;8.548;2023-02-15T08:58:50;11.68;;;7.50;;
32297;SDS011;18782;48.984;8.548;2023-02-15T09:01:18;14.20;;;8.50;;
32297;SDS011;18782;48.984;8.548;2023-02-15T09:03:48;21.35;;;11.75;;
32297;SDS011;18782;48.984;8.548;2023-02-15T09:06:19;14.52;;;8.60;;
32297;SDS011;18782;48.984;8.548;2023-02-15T09:08:47;12.27;;;7.95;;
32297;SDS011;18782;48.984;8.548;2023-02-15T09:11:15;16.92;;;9.13;;
32297;SDS011;18782;48.984;8.548;2023-02-15T09:13:49;13.50;;;9.00;;
32297;SDS011;18782;48.984;8.548;2023-02-15T09:16:20;15.82;;;8.57;;
32297;SDS011;18782;48.984;8.548;2023-02-15T09:18:49;13.48;;;8.57;;
32297;SDS011;18782;48.984;8.548;2023-02-15T09:21:18;16.63;;;8.13;;
32297;SDS011;18782;48.984;8.548;2023-02-15T09:23:49;15.32;;;8.57;;
32297;SDS011;18782;48.984;8.548;2023-02-15T09:26:18;14.98;;;8.88;;
32297;SDS011;18782;48.984;8.548;2023-02-15T09:28:51;14.50;;;8.77;;
32297;SDS011;18782;48.984;8.548;2023-02-15T09:31:23;14.38;;;8.55;;
32297;SDS011;18782;48.984;8.548;2023-02-15T09:33:52;15.77;;;8.98;;
32297;SDS011;18782;48.984;8.548;2023-02-15T09:36:22;17.48;;;9.65;;
32297;SDS011;18782;48.984;8.548;2023-02-15T09:38:52;16.52;;;10.18;;
32297;SDS011;18782;48.984;8.548;2023-02-15T09:41:33;22.42;;;12.10;;
32297;SDS011;18782;48.984;8.548;2023-02-15T09:44:28;15.48;;;9.43;;
32297;SDS011;18782;48.984;8.548;2023-02-15T09:47:13;15.10;;;8.55;;
32297;SDS011;18782;48.984;8.548;2023-02-15T09:49:57;14.18;;;8.57;;
32297;SDS011;18782;48.984;8.548;2023-02-15T09:52:34;12.95;;;7.93;;
32297;SDS011;18782;48.984;8.548;2023-02-15T09:55:18;13.45;;;8.35;;
32297;SDS011;18782;48.984;8.548;2023-02-15T09:57:58;14.18;;;8.52;;
32297;SDS011;18782;48.984;8.548;2023-02-15T10:00:37;13.75;;;9.00;;
32297;SDS011;18782;48.984;8.548;2023-02-15T10:03:16;12.75;;;8.35;;
32297;SDS011;18782;48.984;8.548;2023-02-15T10:05:55;13.40;;;8.77;;
32297;SDS011;18782;48.984;8.548;2023-02-15T10:08:48;13.65;;;8.40;;
32297;SDS011;18782;48.984;8.548;2023-02-15T10:11:29;14.63;;;8.87;;
32297;SDS011;18782;48.984;8.548;2023-02-15T10:14:29;11.30;;;7.32;;
32297;SDS011;18782;48.984;8.548;2023-02-15T10:17:10;16.08;;;7.90;;
32297;SDS011;18782;48.984;8.548;2023-02-15T10:20:02;12.80;;;7.80;;
32297;SDS011;18782;48.984;8.548;2023-02-15T10:22:48;15.85;;;9.00;;
32297;SDS011;18782;48.984;8.548;2023-02-15T10:28:00;14.05;;;8.30;;
32297;SDS011;18782;48.984;8.548;2023-02-15T10:30:34;12.63;;;7.72;;
32297;SDS011;18782;48.984;8.548;2023-02-15T10:33:13;19.63;;;12.18;;
32297;SDS011;18782;48.984;8.548;2023-02-15T10:35:57;13.60;;;8.52;;
32297;SDS011;18782;48.984;8.548;2023-02-15T10:38:33;15.80;;;9.43;;
32297;SDS011;18782;48.984;8.548;2023-02-15T10:41:09;13.95;;;8.75;;
32297;SDS011;18782;48.984;8.548;2023-02-15T10:46:55;16.52;;;9.70;;
32297;SDS011;18782;48.984;8.548;2023-02-15T10:49:50;15.55;;;9.30;;
32297;SDS011;18782;48.984;8.548;2023-02-15T10:52:34;14.75;;;8.80;;
32297;SDS011;18782;48.984;8.548;2023-02-15T10:55:18;15.43;;;9.68;;
32297;SDS011;18782;48.984;8.548;2023-02-15T10:57:58;13.57;;;9.10;;
32297;SDS011;18782;48.984;8.548;2023-02-15T11:00:35;15.68;;;9.80;;
32297;SDS011;18782;48.984;8.548;2023-02-15T11:03:16;13.73;;;9.05;;
32297;SDS011;18782;48.984;8.548;2023-02-15T11:06:03;8.90;;;6.07;;
32297;SDS011;18782;48.984;8.548;2023-02-15T11:08:35;13.82;;;8.95;;
32297;SDS011;18782;48.984;8.548;2023-02-15T11:11:06;13.07;;;8.85;;
32297;SDS011;18782;48.984;8.548;2023-02-15T11:13:38;14.43;;;8.90;;
32297;SDS011;18782;48.984;8.548;2023-02-15T11:16:11;17.75;;;10.43;;
32297;SDS011;18782;48.984;8.548;2023-02-15T11:18:45;12.20;;;8.18;;
32297;SDS011;18782;48.984;8.548;2023-02-15T11:21:20;13.02;;;8.93;;
32297;SDS011;18782;48.984;8.548;2023-02-15T11:23:50;14.93;;;9.27;;
32297;SDS011;18782;48.984;8.548;2023-02-15T11:26:19;14.38;;;9.68;;
32297;SDS011;18782;48.984;8.548;2023-02-15T11:28:54;13.75;;;9.35;;
32297;SDS011;18782;48.984;8.548;2023-02-15T11:31:26;14.27;;;9.55;;
32297;SDS011;18782;48.984;8.548;2023-02-15T11:34:12;14.93;;;9.25;;
32297;SDS011;18782;48.984;8.548;2023-02-15T11:36:45;15.40;;;9.32;;
32297;SDS011;18782;48.984;8.548;2023-02-15T11:39:18;11.00;;;7.18;;
32297;SDS011;18782;48.984;8.548;2023-02-15T11:41:49;14.93;;;9.73;;
32297;SDS011;18782;48.984;8.548;2023-02-15T11:44:21;13.60;;;9.35;;
32297;SDS011;18782;48.984;8.548;2023-02-15T11:46:52;15.35;;;10.45;;
32297;SDS011;18782;48.984;8.548;2023-02-15T11:49:21;13.80;;;9.73;;
32297;SDS011;18782;48.984;8.548;2023-02-15T11:51:54;14.38;;;9.10;;
32297;SDS011;18782;48.984;8.548;2023-02-15T11:54:25;12.80;;;8.98;;
32297;SDS011;18782;48.984;8.548;2023-02-15T11:56:55;15.48;;;9.07;;
32297;SDS011;18782;48.984;8.548;2023-02-15T11:59:27;18.70;;;10.35;;
32297;SDS011;18782;48.984;8.548;2023-02-15T12:04:28;18.00;;;10.32;;
32297;SDS011;18782;48.984;8.548;2023-02-15T12:07:00;13.85;;;9.25;;
32297;SDS011;18782;48.984;8.548;2023-02-15T12:09:40;15.32;;;10.13;;
32297;SDS011;18782;48.984;8.548;2023-02-15T12:12:21;13.32;;;9.23;;
32297;SDS011;18782;48.984;8.548;2023-02-15T12:14:52;16.63;;;9.38;;
32297;SDS011;18782;48.984;8.548;2023-02-15T12:17:21;15.05;;;9.20;;
32297;SDS011;18782;48.984;8.548;2023-02-15T12:19:51;14.07;;;8.95;;
32297;SDS011;18782;48.984;8.548;2023-02-15T12:22:22;14.38;;;9.18;;
32297;SDS011;18782;48.984;8.548;2023-02-15T12:24:54;37.25;;;17.52;;
32297;SDS011;18782;48.984;8.548;2023-02-15T12:27:26;15.10;;;9.83;;
32297;SDS011;18782;48.984;8.548;2023-02-15T12:29:56;16.30;;;10.25;;
32297;SDS011;18782;48.984;8.548;2023-02-15T12:32:27;13.63;;;8.82;;
32297;SDS011;18782;48.984;8.548;2023-02-15T12:34:59;14.07;;;10.20;;
32297;SDS011;18782;48.984;8.548;2023-02-15T12:37:34;12.68;;;8.65;;
32297;SDS011;18782;48.984;8.548;2023-02-15T12:40:18;15.00;;;10.07;;
32297;SDS011;18782;48.984;8.548;2023-02-15T12:42:47;14.43;;;9.88;;
32297;SDS011;18782;48.984;8.548;2023-02-15T12:45:23;12.38;;;9.07;;
32297;SDS011;18782;48.984;8.548;2023-02-15T12:50:45;13.52;;;9.10;;
32297;SDS011;18782;48.984;8.548;2023-02-15T12:53:20;14.63;;;9.68;;
32297;SDS011;18782;48.984;8.548;2023-02-15T12:55:52;12.27;;;8.80;;
32297;SDS011;18782;48.984;8.548;2023-02-15T12:58:21;14.52;;;10.13;;
32297;SDS011;18782;48.984;8.548;2023-02-15T13:01:02;13.50;;;9.60;;
32297;SDS011;18782;48.984;8.548;2023-02-15T13:03:37;13.63;;;9.90;;
32297;SDS011;18782;48.984;8.548;2023-02-15T13:06:06;13.77;;;10.02;;
32297;SDS011;18782;48.984;8.548;2023-02-15T13:08:35;13.40;;;9.77;;
32297;SDS011;18782;48.984;8.548;2023-02-15T13:11:15;16.13;;;10.77;;
32297;SDS011;18782;48.984;8.548;2023-02-15T13:13:50;14.00;;;9.93;;
32297;SDS011;18782;48.984;8.548;2023-02-15T13:16:21;14.35;;;9.95;;
32297;SDS011;18782;48.984;8.548;2023-02-15T13:18:57;14.10;;;10.10;;
32297;SDS011;18782;48.984;8.548;2023-02-15T13:21:26;12.77;;;9.18;;
32297;SDS011;18782;48.984;8.548;2023-02-15T13:24:00;21.60;;;15.52;;
32297;SDS011;18782;48.984;8.548;2023-02-15T13:26:34;15.65;;;11.70;;
32297;SDS011;18782;48.984;8.548;2023-02-15T13:29:04;16.85;;;11.57;;
32297;SDS011;18782;48.984;8.548;2023-02-15T13:31:35;15.50;;;11.20;;
32297;SDS011;18782;48.984;8.548;2023-02-15T13:34:07;15.98;;;10.60;;
32297;SDS011;18782;48.984;8.548;2023-02-15T13:36:39;13.45;;;9.68;;
32297;SDS011;18782;48.984;8.548;2023-02-15T13:39:17;14.70;;;10.27;;
32297;SDS011;18782;48.984;8.548;2023-02-15T13:41:53;14.85;;;10.38;;
32297;SDS011;18782;48.984;8.548;2023-02-15T13:44:30;17.17;;;10.90;;
32297;SDS011;18782;48.984;8.548;2023-02-15T13:47:13;13.48;;;10.00;;
32297;SDS011;18782;48.984;8.548;2023-02-15T13:49:51;21.35;;;12.77;;
32297;SDS011;18782;48.984;8.548;2023-02-15T13:52:38;18.95;;;12.52;;
32297;SDS011;18782;48.984;8.548;2023-02-15T13:55:15;16.90;;;11.60;;
32297;SDS011;18782;48.984;8.548;2023-02-15T13:58:03;17.05;;;12.02;;
32297;SDS011;18782;48.984;8.548;2023-02-15T14:00:44;13.57;;;10.35;;
32297;SDS011;18782;48.984;8.548;2023-02-15T14:03:29;15.57;;;11.50;;
32297;SDS011;18782;48.984;8.548;2023-02-15T14:06:15;16.52;;;10.95;;
32297;SDS011;18782;48.984;8.548;2023-02-15T14:08:59;16.38;;;11.32;;
32297;SDS011;18782;48.984;8.548;2023-02-15T14:11:39;14.83;;;10.43;;
32297;SDS011;18782;48.984;8.548;2023-02-15T14:14:21;14.55;;;9.90;;
32297;SDS011;18782;48.984;8.548;2023-02-15T14:17:00;13.70;;;10.32;;
32297;SDS011;18782;48.984;8.548;2023-02-15T14:19:35;20.90;;;14.40;;
32297;SDS011;18782;48.984;8.548;2023-02-15T14:22:14;14.57;;;9.90;;
32297;SDS011;18782;48.984;8.548;2023-02-15T14:24:51;18.60;;;13.48;;
32297;SDS011;18782;48.984;8.548;2023-02-15T14:27:27;16.00;;;11.40;;
32297;SDS011;18782;48.984;8.548;2023-02-15T14:30:14;14.55;;;11.18;;
32297;SDS011;18782;48.984;8.548;2023-02-15T14:32:47;14.93;;;10.75;;
32297;SDS011;18782;48.984;8.548;2023-02-15T14:35:19;11.95;;;9.57;;
32297;SDS011;18782;48.984;8.548;2023-02-15T14:37:50;13.68;;;9.85;;
32297;SDS011;18782;48.984;8.548;2023-02-15T14:40:26;13.88;;;10.10;;
32297;SDS011;18782;48.984;8.548;2023-02-15T14:43:20;13.95;;;10.75;;
32297;SDS011;18782;48.984;8.548;2023-02-15T14:45:56;12.25;;;9.90;;
32297;SDS011;18782;48.984;8.548;2023-02-15T14:48:30;10.80;;;8.95;;
32297;SDS011;18782;48.984;8.548;2023-02-15T14:51:01;13.63;;;9.52;;
32297;SDS011;18782;48.984;8.548;2023-02-15T14:56:19;11.73;;;9.55;;
32297;SDS011;18782;48.984;8.548;2023-02-15T14:58:59;11.32;;;9.77;;
32297;SDS011;18782;48.984;8.548;2023-02-15T15:01:42;12.55;;;10.23;;
32297;SDS011;18782;48.984;8.548;2023-02-15T15:04:24;11.57;;;9.27;;
32297;SDS011;18782;48.984;8.548;2023-02-15T15:07:00;12.55;;;9.75;;
32297;SDS011;18782;48.984;8.548;2023-02-15T15:09:35;13.95;;;10.48;;
32297;SDS011;18782;48.984;8.548;2023-02-15T15:15:09;12.43;;;10.30;;
32297;SDS011;18782;48.984;8.548;2023-02-15T15:17:57;13.27;;;10.70;;
32297;SDS011;18782;48.984;8.548;2023-02-15T15:20:43;13.70;;;10.90;;
32297;SDS011;18782;48.984;8.548;2023-02-15T15:26:21;13.35;;;10.30;;
32297;SDS011;18782;48.984;8.548;2023-02-15T15:28:54;14.18;;;10.15;;
32297;SDS011;18782;48.984;8.548;2023-02-15T15:31:34;12.43;;;10.57;;
32297;SDS011;18782;48.984;8.548;2023-02-15T15:37:13;14.55;;;11.13;;
32297;SDS011;18782;48.984;8.548;2023-02-15T15:40:21;14.23;;;10.13;;
32297;SDS011;18782;48.984;8.548;2023-02-15T15:43:15;14.07;;;10.20;;
32297;SDS011;18782;48.984;8.548;2023-02-15T15:46:07;12.40;;;10.18;;
32297;SDS011;18782;48.984;8.548;2023-02-15T15:48:59;20.35;;;13.07;;
32297;SDS011;18782;48.984;8.548;2023-02-15T15:51:31;13.60;;;10.20;;
32297;SDS011;18782;48.984;8.548;2023-02-15T15:54:02;15.65;;;11.25;;
32297;SDS011;18782;48.984;8.548;2023-02-15T15:56:31;14.57;;;10.90;;
32297;SDS011;18782;48.984;8.548;2023-02-15T15:59:02;13.48;;;10.07;;